Tofino Airport
CYAZ : now visible

Airfield :











YOU CAN JOIN US ON...

 
LOGIN :

Register | Disclaimer

   EN    FR    IT 

 









Legend :    VFR   Marginal VFR   IFR   Intensive IFR   Very Intensive IFR
Visi :
Ceiling :
>= 8 km
>= 3000ft
5 to 8 km
1000 to 3000 ft
1500m to 5 km
500 to 1000 ft
800 to 1500m
200 to 500 ft
< 800m
< 200 ft
Symbols :   Thunderstorms  Fog  Heavy snow  Heavy precipitations  Wind > 20 kt






- Airport Elevation : 80 ft
- IATA code : YAZ


CYAZ - Tofino

CURRENT METAR :
  • 220100Z 15004KT 100V180 5SM BR FEW017 BKN022 BKN050 07/06 A2958 RMK CU2SC4SC1 LAST STFD OBS/NEXT 221500UTC SLP020

EXPIRED METARs :
  • 220000Z VRB02KT 5SM BR SCT035CB BKN055 BKN066 08/06 A2955 RMK CB4CU1AC1 CB MVG NE CB S OFSHR SLP008
  • 212344Z 15004KT 4SM BR SCT022CB BKN058 OVC095 08/06 A2955 RMK CB4CU2AC2 CB NE-S SLP007
  • 212309Z 17008KT 2SM SHRA BR BKN013CB BKN037 OVC071 08/07 A2953 RMK CB5CU1AC1 SLP002

Expired Forecast.



MET'MAP, your aeronautical weather chart ! - Copyright ORBIFLY December 2007 - Disclaimer

ORBIFLY MET'MAP TEAM :

Programming & Development : Alexandra Zaïnal
Concept & original design : Baudouin d'Aumeries
Assistance for programming : Marc-Olivier Méhu
Technical & hardware support : Manuel Goepfert

Contact : metmap@orbifly.com




SOURCES & CREDITS :

   NOAA       Earth
Advisory